Terminal Aerodrome Forecast
Issued by NWS

Home | Current Version | Previous Version | Text Only | Print | Product List | Glossary On
Versions: 1 2 3 4 5 6 7 8 9 10 11 12 13 14 15 16 17 18 19 20 21 22 23 24 25 26 27
000
FTUS45 KFGZ 030500
TAFGCN
TAF
KGCN 030521Z 0306/0406 VRB04KT P6SM VCFG BKN004
     FM031600 24011KT P6SM SCT020 BKN035 PROB30 0317/0321 2SM -SHSN
      SCT015 BKN025
     FM032100 25009KT P6SM SCT018 BKN030 PROB30 0321/0403 2SM -SHSN
      BKN015=

USA.gov is the U.S. government's official web portal to all federal, state and local government web resources and services.